Flight Track Log - Related Links

Times and Time Zones

All times are in EDT time to prevent confusion due to time zone crossing. See the N190EF flight status page for this flight to view local times or setup timezone preferences in your user account.

Time Position Orientation Groundspeed Altitude Reporting Facility
EDT Latitude Longitude Course Direction KTS MPH feet Rate Location/Type
Thu 03:39:21 PM 40.4300 -122.3722 North 258 297 25,000  Level Oakland Center
Thu 03:40:21 PM 40.5906 -122.3508 157° South 252 290 25,000 -11,850 Level Oakland Center
Thu 03:41:21 PM 40.4933 -122.2972 82° East 252 290 1,300 -10,850 Descending Oakland Center
Thu 03:42:21 PM 40.4981 -122.2508 17° North 175 201 3,300 2,100 Climbing Oakland Center
Thu 03:43:21 PM 40.5439 -122.2325 21° North 70 81 5,500 2,050 Climbing Oakland Center
Thu 03:44:21 PM 40.5900 -122.2089 21° North 122 140 7,400 1,850 Climbing Oakland Center
Thu 03:45:21 PM 40.6361 -122.1850 20° North 155 178 9,200 1,850 Climbing Oakland Center
Thu 03:46:21 PM 40.6864 -122.1611 22° Northeast 170 196 11,100 1,950 Climbing Oakland Center
Thu 03:47:21 PM 40.7347 -122.1347 18° North 181 208 13,100 1,950 Climbing Oakland Center
Thu 03:48:21 PM 40.7828 -122.1136 20° North 186 214 15,000 1,800 Climbing Oakland Center
Thu 03:49:21 PM 40.8267 -122.0922 19° North 181 208 16,700 1,636 Climbing Oakland Center
Thu 03:50:33 PM 40.8828 -122.0661 21° North 177 204 18,600 1,444 Climbing Seattle Center
Thu 03:51:34 PM 40.9319 -122.0406 19° North 184 212 19,900 1,279 Climbing Seattle Center
Thu 03:52:35 PM 40.9836 -122.0164 24° Northeast 192 221 21,200 1,426 Climbing Seattle Center
Thu 03:53:36 PM 41.0417 -121.9819 18° North 191 220 22,800 1,268 Climbing Seattle Center
Thu 03:54:38 PM 41.0919 -121.9600 20° North 190 219 23,800 537 Climbing Seattle Center
Thu 03:55:39 PM 41.1514 -121.9308 20° North 227 261 23,900 98 Climbing Seattle Center
Thu 03:56:40 PM 41.2158 -121.8992 19° North 270 311 24,000  Climbing Seattle Center
Thu 03:57:41 PM 41.2900 -121.8656 North 280 322 23,900 -49 Descending Seattle Center
Thu 03:58:42 PM 41.3656 -121.8494 14° North 274 315 23,900 49 Level Seattle Center
Thu 03:59:43 PM 41.4425 -121.8231 17° North 283 326 24,000 49 Climbing Seattle Center
Thu 04:00:44 PM 41.5203 -121.7908 16° North 292 336 24,000  Level Seattle Center
Thu 04:01:45 PM 41.6119 -121.7547 15° North 288 331 24,000  Level Seattle Center
Thu 04:02:46 PM 41.6892 -121.7264 17° North 288 331 24,000  Level Seattle Center
Thu 04:03:47 PM 41.7647 -121.6956 14° North 286 329 24,000  Level Seattle Center
Thu 04:04:48 PM 41.8397 -121.6700 16° North 281 323 24,000  Level Seattle Center
Thu 04:05:49 PM 41.9144 -121.6417 17° North 281 323 24,000  Level Seattle Center
Thu 04:06:50 PM 41.9900 -121.6108 15° North 285 328 24,000  Level Seattle Center
Thu 04:07:51 PM 42.0672 -121.5822 16° North 288 331 24,000  Level Seattle Center
Thu 04:08:52 PM 42.1439 -121.5528 15° North 289 333 24,000  Level Seattle Center
Thu 04:09:53 PM 42.2197 -121.5253 16° North 286 329 24,000  Level Seattle Center
Thu 04:10:54 PM 42.2953 -121.4961 15° North 284 327 24,000  Level Seattle Center
Thu 04:11:55 PM 42.3867 -121.4625 15° North 284 327 24,000  Level Seattle Center
Thu 04:12:56 PM 42.4633 -121.4342 16° North 286 329 24,000  Level Seattle Center
Thu 04:13:57 PM 42.5375 -121.4044 16° North 281 323 24,000  Level Seattle Center
Thu 04:14:58 PM 42.6111 -121.3764 16° North 276 318 24,000  Level Seattle Center
Thu 04:15:59 PM 42.6853 -121.3481 16° North 277 319 24,000  Level Seattle Center
Thu 04:16:59 PM 42.7583 -121.3200 15° North 274 315 24,000  Level Seattle Center
Thu 04:18:00 PM 42.8331 -121.2928 16° North 276 318 24,000  Level Seattle Center
Thu 04:19:01 PM 42.9067 -121.2644 15° North 276 318 24,000  Level Seattle Center
Thu 04:20:02 PM 42.9800 -121.2369 16° North 274 315 24,000  Level Seattle Center
Thu 04:21:03 PM 43.0542 -121.2072 16° North 277 319 24,000  Level Seattle Center
Thu 04:22:04 PM 43.1289 -121.1783 15° North 278 320 24,000  Level Seattle Center
Thu 04:23:05 PM 43.2028 -121.1506 17° North 276 318 24,000  Level Seattle Center
Thu 04:24:07 PM 43.2775 -121.1192 17° North 279 321 24,000  Level Seattle Center
Thu 04:25:08 PM 43.3525 -121.0875 15° North 281 323 24,000  Level Seattle Center
Thu 04:26:09 PM 43.4414 -121.0539 15° North 276 318 24,000  Level Seattle Center
Thu 04:27:10 PM 43.5142 -121.0264 16° North 272 313 24,000  Level Seattle Center
Thu 04:28:11 PM 43.5831 -120.9992 16° North 275 316 24,000  Level Seattle Center
Thu 04:29:12 PM 43.6569 -120.9703 16° North 276 318 24,000  Level Seattle Center
Thu 04:30:13 PM 43.7303 -120.9403 16° North 277 319 24,000  Level Seattle Center
Thu 04:31:14 PM 43.8047 -120.9114 15° North 278 320 24,000  Level Seattle Center
Thu 04:32:15 PM 43.8925 -120.8781 17° North 275 316 24,000  Level Seattle Center
Thu 04:33:16 PM 43.9667 -120.8475 18° North 277 319 24,000  Level Seattle Center
Thu 04:34:17 PM 44.0397 -120.8142 32° Northeast 279 321 24,000  Level Seattle Center
Thu 04:35:19 PM 44.1072 -120.7558 27° Northeast 286 329 24,000  Level Seattle Center
Thu 04:36:20 PM 44.1778 -120.7053 28° Northeast 286 329 24,000  Level Seattle Center
Thu 04:37:21 PM 44.2492 -120.6531 27° Northeast 290 334 24,000  Level Seattle Center
Thu 04:38:22 PM 44.3211 -120.6028 28° Northeast 290 334 24,000  Level Seattle Center
Thu 04:39:23 PM 44.3900 -120.5519 28° Northeast 288 331 24,000  Level Seattle Center
Thu 04:40:24 PM 44.4736 -120.4903 28° Northeast 285 328 24,000  Level Seattle Center
Thu 04:41:25 PM 44.5439 -120.4386 28° Northeast 285 328 24,000  Level Seattle Center
Thu 04:42:26 PM 44.6153 -120.3850 28° Northeast 287 330 24,000  Level Seattle Center
Thu 04:43:28 PM 44.6856 -120.3331 28° Northeast 287 330 24,000  Level Seattle Center
Thu 04:44:29 PM 44.7586 -120.2786 29° Northeast 294 338 24,000  Level Seattle Center
Thu 04:45:30 PM 44.8306 -120.2233 28° Northeast 295 339 24,000  Level Seattle Center
Thu 04:46:31 PM 44.9022 -120.1694 28° Northeast 293 337 24,000  Level Seattle Center
Thu 04:47:32 PM 44.9756 -120.1147 28° Northeast 294 338 24,000 -390 Level Seattle Center
Thu 04:48:34 PM 45.0489 -120.0594 28° Northeast 294 338 23,200 -1,024 Descending Seattle Center
Thu 04:49:35 PM 45.1231 -120.0033 27° Northeast 298 343 21,900 -1,180 Descending Seattle Center
Thu 04:50:36 PM 45.1975 -119.9486 29° Northeast 300 345 20,800 -1,131 Descending Seattle Center
Thu 04:51:37 PM 45.2689 -119.8922 28° Northeast 297 342 19,600 -1,220 Descending Seattle Center
Thu 04:52:39 PM 45.3372 -119.8397 28° Northeast 285 328 18,300 -1,512 Descending Seattle Center
Thu 04:53:40 PM 45.4181 -119.7783 29° Northeast 277 319 16,500 -1,475 Descending Seattle Center
Thu 04:54:41 PM 45.4847 -119.7267 28° Northeast 276 318 15,300 -1,230 Descending Seattle Center
Thu 04:55:42 PM 45.5517 -119.6750 27° Northeast 275 316 14,000 -1,268 Descending Seattle Center
Thu 04:56:44 PM 45.6186 -119.6253 29° Northeast 274 315 12,700 -1,220 Descending Seattle Center
Thu 04:57:45 PM 45.6833 -119.5736 29° Northeast 271 312 11,500 -1,180 Descending Seattle Center
Thu 04:58:46 PM 45.7453 -119.5247 29° Northeast 262 302 10,300 -1,131 Descending Seattle Center
Thu 04:59:47 PM 45.8053 -119.4761 25° Northeast 255 293 9,200 -1,122 Descending Seattle Center
Thu 05:00:49 PM 45.8650 -119.4358 30° Northeast 247 284 8,000 -1,111 Descending Seattle Center
Thu 05:02:02 PM 45.9347 -119.3786 32° Northeast 242 278 6,700 -1,111 Descending Seattle Center
Thu 05:03:04 PM 45.9992 -119.3206 29° Northeast 234 269 5,500 -976 Descending Seattle Center
Thu 05:04:05 PM 46.0528 -119.2783 31° Northeast 226 260 4,700 -787 Descending Seattle Center
Thu 05:05:06 PM 46.1028 -119.2347 28° Northeast 216 249 3,900 -829 Descending Seattle Center
Thu 05:06:08 PM 46.1503 -119.1983 14° North 206 237 3,000 -878 Descending Seattle Center
Thu 05:07:09 PM 46.1964 -119.1811 12° North 182 209 2,100 -689 Descending Seattle Center
Thu 05:08:10 PM 46.2356 -119.1692 12° North 160 184 1,600 -492 Descending Seattle Center

Login

Don't have an account? Register now (free) for customized features, flight alerts, and more!